createdAt,value
2023-04-16T00:01:40.962Z,100994.60
2023-04-16T00:04:09.262Z,100995.40
2023-04-16T00:06:37.257Z,100989.40
2023-04-16T00:09:05.442Z,100996.00
2023-04-16T00:11:33.440Z,100998.40
2023-04-16T00:14:01.604Z,100993.80
2023-04-16T00:16:29.648Z,100996.80
2023-04-16T00:18:57.571Z,101000.00
2023-04-16T00:21:26.501Z,100997.80
2023-04-16T00:23:54.308Z,100997.80
2023-04-16T00:26:22.324Z,100989.80
2023-04-16T00:28:50.409Z,100995.80
2023-04-16T00:31:18.461Z,100995.20
2023-04-16T00:33:46.350Z,100995.80
2023-04-16T00:36:14.270Z,100998.80
2023-04-16T00:38:42.024Z,100995.40
2023-04-16T00:41:09.834Z,100993.60
2023-04-16T00:43:38.214Z,100988.20
2023-04-16T00:46:07.479Z,100993.20
2023-04-16T00:48:38.508Z,100996.60
2023-04-16T00:51:08.843Z,100997.20
2023-04-16T00:53:36.818Z,100993.80
2023-04-16T00:56:07.652Z,100999.00
2023-04-16T00:58:36.238Z,100996.80
2023-04-16T01:01:04.542Z,101001.40
2023-04-16T01:03:40.351Z,101002.00
2023-04-16T01:06:08.290Z,101001.20
2023-04-16T01:08:36.384Z,101003.60
2023-04-16T01:11:04.685Z,101004.40
2023-04-16T01:13:33.886Z,101011.20
2023-04-16T01:16:01.792Z,101010.00
2023-04-16T01:18:29.567Z,101012.40
2023-04-16T01:20:57.376Z,101010.20
2023-04-16T01:23:25.203Z,101008.20
2023-04-16T01:25:52.975Z,101007.40
2023-04-16T01:28:21.334Z,101009.60
2023-04-16T01:30:49.400Z,101011.80
2023-04-16T01:33:19.274Z,101008.40
2023-04-16T01:35:47.139Z,101009.20
2023-04-16T01:38:14.962Z,101010.40
2023-04-16T01:40:43.108Z,101004.80
2023-04-16T01:43:10.947Z,101003.80
2023-04-16T01:45:38.726Z,101001.40
2023-04-16T01:48:07.157Z,101004.20
2023-04-16T01:50:35.196Z,101006.00
2023-04-16T01:53:05.245Z,100998.40
2023-04-16T01:55:34.286Z,100997.40
2023-04-16T01:58:02.068Z,101000.20
2023-04-16T02:00:29.902Z,101001.20
2023-04-16T02:02:57.864Z,101004.00
2023-04-16T02:05:26.052Z,101004.20
2023-04-16T02:07:53.886Z,101004.40
2023-04-16T02:10:22.307Z,101002.20
2023-04-16T02:12:50.225Z,101003.40
2023-04-16T02:15:18.051Z,101003.00
2023-04-16T02:17:46.857Z,101004.20
2023-04-16T02:20:14.811Z,101008.40
2023-04-16T02:22:43.491Z,101005.80
2023-04-16T02:25:11.359Z,101006.20
2023-04-16T02:27:39.225Z,101005.00
2023-04-16T02:30:08.050Z,101002.80
2023-04-16T02:32:35.952Z,101006.60
2023-04-16T02:35:04.321Z,101007.80
2023-04-16T02:37:32.131Z,101007.60
2023-04-16T02:39:59.885Z,101000.40
2023-04-16T02:42:28.680Z,101010.20
2023-04-16T02:44:56.569Z,101008.00
2023-04-16T02:47:24.382Z,101009.80
2023-04-16T02:49:52.291Z,101009.20
2023-04-16T02:52:20.052Z,101010.60
2023-04-16T02:54:47.934Z,101014.60
2023-04-16T02:57:15.682Z,101010.60
2023-04-16T02:59:43.523Z,101020.60
2023-04-16T03:02:11.496Z,101022.20
2023-04-16T03:04:39.626Z,101019.80
2023-04-16T03:07:09.291Z,101028.40
2023-04-16T03:09:37.111Z,101026.20
2023-04-16T03:12:05.328Z,101026.00
2023-04-16T03:14:33.623Z,101028.40
2023-04-16T03:17:01.395Z,101027.60
2023-04-16T03:19:29.153Z,101031.20
2023-04-16T03:21:56.937Z,101026.20
2023-04-16T03:24:24.721Z,101024.00
2023-04-16T03:26:52.469Z,101024.00
2023-04-16T03:29:20.557Z,101030.20
2023-04-16T03:31:48.333Z,101029.60
2023-04-16T03:34:16.128Z,101032.00
2023-04-16T03:36:44.040Z,101034.40
2023-04-16T03:39:11.992Z,101028.60
2023-04-16T03:41:39.872Z,101029.00
2023-04-16T03:44:07.662Z,101027.20
2023-04-16T03:46:35.729Z,101030.80
2023-04-16T03:49:03.520Z,101039.00
2023-04-16T03:51:31.360Z,101036.40
2023-04-16T03:53:59.183Z,101040.40
2023-04-16T03:56:26.933Z,101041.60
2023-04-16T03:58:54.744Z,101042.00
2023-04-16T04:01:22.577Z,101045.80
2023-04-16T04:03:50.597Z,101044.00
2023-04-16T04:06:18.536Z,101048.00
2023-04-16T04:08:46.356Z,101045.60
2023-04-16T04:11:14.229Z,101052.60
2023-04-16T04:13:42.005Z,101058.40
2023-04-16T04:16:09.803Z,101055.00
2023-04-16T04:18:37.888Z,101055.00
2023-04-16T04:21:09.255Z,101063.00
2023-04-16T04:23:37.414Z,101058.40
2023-04-16T04:26:05.939Z,101063.40
2023-04-16T04:28:35.300Z,101068.20
2023-04-16T04:31:03.158Z,101071.80
2023-04-16T04:33:30.973Z,101072.60
2023-04-16T04:35:58.812Z,101070.60
2023-04-16T04:38:26.627Z,101072.00
2023-04-16T04:40:54.497Z,101072.80
2023-04-16T04:43:22.414Z,101075.00
2023-04-16T04:45:50.531Z,101073.60
2023-04-16T04:48:18.290Z,101075.80
2023-04-16T04:50:46.606Z,101075.40
2023-04-16T04:53:15.223Z,101083.80
2023-04-16T04:55:43.111Z,101083.80
2023-04-16T04:58:11.317Z,101084.20
2023-04-16T05:00:39.183Z,101080.40
2023-04-16T05:03:11.963Z,101084.80
2023-04-16T05:05:41.163Z,101081.60
2023-04-16T05:08:09.122Z,101085.00
2023-04-16T05:10:36.934Z,101081.80
2023-04-16T05:13:04.783Z,101084.60
2023-04-16T05:15:32.542Z,101087.00
2023-04-16T05:18:00.692Z,101087.40
2023-04-16T05:20:28.544Z,101090.60
2023-04-16T05:22:56.618Z,101091.00
2023-04-16T05:25:24.417Z,101095.40
2023-04-16T05:27:52.193Z,101099.60
2023-04-16T05:30:19.967Z,101104.80
2023-04-16T05:32:48.170Z,101104.80
2023-04-16T05:35:17.462Z,101105.00
2023-04-16T05:37:45.685Z,101107.40
2023-04-16T05:40:14.678Z,101111.80
2023-04-16T05:42:42.510Z,101111.40
2023-04-16T05:45:11.023Z,101115.80
2023-04-16T05:47:38.782Z,101115.40
2023-04-16T05:50:07.589Z,101116.20
2023-04-16T05:52:35.703Z,101118.20
2023-04-16T05:55:05.141Z,101117.80
2023-04-16T05:57:33.865Z,101123.40
2023-04-16T06:00:01.664Z,101115.80
2023-04-16T06:02:31.627Z,101125.40
2023-04-16T06:04:59.603Z,101124.20
2023-04-16T06:07:27.368Z,101127.40
2023-04-16T06:09:55.184Z,101127.60
2023-04-16T06:12:23.040Z,101122.20
2023-04-16T06:14:50.954Z,101131.80
2023-04-16T06:17:19.637Z,101130.80
2023-04-16T06:19:47.608Z,101131.40
2023-04-16T06:22:15.649Z,101133.00
2023-04-16T06:24:43.547Z,101135.40
2023-04-16T06:27:11.376Z,101134.20
2023-04-16T06:29:41.576Z,101139.40
2023-04-16T06:32:09.979Z,101138.80
2023-04-16T06:34:39.103Z,101138.80
2023-04-16T06:37:09.866Z,101142.00
2023-04-16T06:39:38.396Z,101143.20
2023-04-16T06:42:06.316Z,101144.00
2023-04-16T06:44:35.346Z,101147.60
2023-04-16T06:47:03.348Z,101150.20
2023-04-16T06:49:31.237Z,101154.60
2023-04-16T06:51:59.059Z,101153.60
2023-04-16T06:54:26.949Z,101148.20
2023-04-16T06:56:54.861Z,101153.60
2023-04-16T06:59:22.807Z,101159.60
2023-04-16T07:01:52.625Z,101155.80
2023-04-16T07:04:21.406Z,101161.40
2023-04-16T07:06:49.217Z,101159.60
2023-04-16T07:09:18.125Z,101157.40
2023-04-16T07:11:47.287Z,101162.60
2023-04-16T07:14:15.283Z,101160.40
2023-04-16T07:16:43.210Z,101165.80
2023-04-16T07:19:11.513Z,101163.40
2023-04-16T07:21:39.880Z,101164.00
2023-04-16T07:24:07.787Z,101167.20
2023-04-16T07:26:35.707Z,101172.80
2023-04-16T07:29:03.607Z,101172.20
2023-04-16T07:31:31.757Z,101174.60
2023-04-16T07:33:59.764Z,101172.00
2023-04-16T07:36:28.431Z,101169.40
2023-04-16T07:38:56.393Z,101171.00
2023-04-16T07:41:24.668Z,101172.60
2023-04-16T07:43:52.459Z,101178.00
2023-04-16T07:46:20.404Z,101180.20
2023-04-16T07:48:48.538Z,101180.80
2023-04-16T07:51:16.981Z,101180.40
2023-04-16T07:53:44.766Z,101178.00
2023-04-16T07:56:12.595Z,101178.60
2023-04-16T07:58:40.487Z,101183.40
2023-04-16T08:01:08.475Z,101178.40
2023-04-16T08:03:36.806Z,101186.40
2023-04-16T08:06:08.032Z,101184.20
2023-04-16T08:08:35.807Z,101183.40
2023-04-16T08:11:04.043Z,101180.20
2023-04-16T08:13:33.474Z,101191.00
2023-04-16T08:16:08.004Z,101193.40
2023-04-16T08:18:37.473Z,101191.20
2023-04-16T08:21:07.815Z,101190.40
2023-04-16T08:23:38.653Z,101190.00
2023-04-16T08:26:07.404Z,101186.00
2023-04-16T08:28:35.261Z,101189.80
2023-04-16T08:31:03.298Z,101189.20
2023-04-16T08:33:31.169Z,101183.80
2023-04-16T08:35:58.925Z,101183.40
2023-04-16T08:38:27.413Z,101186.60
2023-04-16T08:40:58.206Z,101185.20
2023-04-16T08:43:26.876Z,101186.40
2023-04-16T08:45:57.064Z,101191.40
2023-04-16T08:48:25.561Z,101182.20
2023-04-16T08:50:55.011Z,101188.40
2023-04-16T08:53:36.285Z,101184.00
2023-04-16T08:56:06.931Z,101183.40
2023-04-16T08:58:36.062Z,101187.80
2023-04-16T09:01:04.763Z,101192.00
2023-04-16T09:03:36.162Z,101191.40
2023-04-16T09:06:05.681Z,101196.20
2023-04-16T09:08:36.191Z,101202.20
2023-04-16T09:11:04.852Z,101197.40
2023-04-16T09:13:33.006Z,101201.80
2023-04-16T09:16:01.682Z,101208.40
2023-04-16T09:18:31.396Z,101206.40
2023-04-16T09:20:59.930Z,101212.60
2023-04-16T09:23:29.329Z,101209.20
2023-04-16T09:26:00.466Z,101216.20
2023-04-16T09:28:43.737Z,101216.20
2023-04-16T09:31:21.846Z,101219.40
2023-04-16T09:34:09.676Z,101222.00
2023-04-16T09:36:37.561Z,101225.00
2023-04-16T09:39:05.711Z,101228.60
2023-04-16T09:41:39.783Z,101231.80
2023-04-16T09:44:07.796Z,101236.80
2023-04-16T09:46:41.855Z,101237.60
2023-04-16T09:49:19.282Z,101235.20
2023-04-16T09:51:54.866Z,101239.60
2023-04-16T09:54:26.282Z,101242.20
2023-04-16T09:56:57.900Z,101237.20
2023-04-16T09:59:31.230Z,101241.80
2023-04-16T10:02:15.025Z,101242.40
2023-04-16T10:04:49.937Z,101242.80
2023-04-16T10:07:19.738Z,101248.00
2023-04-16T10:09:49.213Z,101250.20
2023-04-16T10:12:17.135Z,101253.60
2023-04-16T10:14:46.520Z,101258.60
2023-04-16T10:17:16.954Z,101254.20
2023-04-16T10:19:46.633Z,101255.60
2023-04-16T10:22:18.304Z,101259.60
2023-04-16T10:24:47.862Z,101258.80
2023-04-16T10:27:17.296Z,101258.00
2023-04-16T10:29:46.247Z,101258.00
2023-04-16T10:32:14.884Z,101260.80
2023-04-16T10:34:43.314Z,101263.40
2023-04-16T10:37:11.089Z,101253.60
2023-04-16T10:39:38.994Z,101257.80
2023-04-16T10:42:08.951Z,101260.80
2023-04-16T10:44:36.839Z,101267.00
2023-04-16T10:47:12.959Z,101263.60
2023-04-16T10:49:44.119Z,101257.60
2023-04-16T10:52:19.380Z,101263.00
2023-04-16T10:54:50.862Z,101262.60
2023-04-16T10:57:20.828Z,101271.40
2023-04-16T10:59:49.492Z,101266.40
2023-04-16T11:02:19.725Z,101273.20
2023-04-16T11:04:50.029Z,101275.20
2023-04-16T11:07:22.300Z,101276.60
2023-04-16T11:10:06.154Z,101289.60
2023-04-16T11:12:47.246Z,101286.60
2023-04-16T11:15:19.859Z,101289.60
2023-04-16T11:17:51.933Z,101297.20
2023-04-16T11:20:28.499Z,101296.40
2023-04-16T11:22:59.177Z,101301.00
2023-04-16T11:25:30.497Z,101308.20
2023-04-16T11:28:01.462Z,101304.60
2023-04-16T11:30:37.264Z,101311.60
2023-04-16T11:33:11.241Z,101313.40
2023-04-16T11:35:41.534Z,101312.40
2023-04-16T11:38:09.579Z,101315.60
2023-04-16T11:40:37.412Z,101310.60
2023-04-16T11:43:17.616Z,101320.20
2023-04-16T11:46:20.173Z,101318.80
2023-04-16T11:48:55.765Z,101323.20
2023-04-16T11:51:24.207Z,101325.40
2023-04-16T11:53:54.153Z,101323.40
2023-04-16T11:56:34.845Z,101324.80
2023-04-16T11:59:23.531Z,101334.00
2023-04-16T12:01:55.923Z,101332.20
2023-04-16T12:04:27.847Z,101333.40
2023-04-16T12:07:24.846Z,101329.20
2023-04-16T12:10:07.882Z,101332.40
2023-04-16T12:12:35.943Z,101336.20
2023-04-16T12:15:04.992Z,101329.80
2023-04-16T12:17:35.461Z,101329.60
2023-04-16T12:20:08.465Z,101339.80
2023-04-16T12:22:39.345Z,101337.40
2023-04-16T12:25:12.251Z,101349.20
2023-04-16T12:27:54.113Z,101340.20
2023-04-16T12:30:26.194Z,101338.00
2023-04-16T12:33:18.420Z,101343.80
2023-04-16T12:35:46.742Z,101347.20
2023-04-16T12:38:17.424Z,101343.00
2023-04-16T12:40:45.794Z,101347.60
2023-04-16T12:43:14.418Z,101347.80
2023-04-16T12:45:42.857Z,101346.20
2023-04-16T12:48:11.099Z,101345.40
2023-04-16T12:50:40.015Z,101349.40
2023-04-16T12:53:07.875Z,101344.60
2023-04-16T12:55:35.828Z,101345.80
2023-04-16T12:58:03.661Z,101344.40
2023-04-16T13:00:31.459Z,101356.60
2023-04-16T13:02:59.339Z,101355.40
2023-04-16T13:05:27.300Z,101357.60
2023-04-16T13:07:55.112Z,101360.20
2023-04-16T13:10:23.839Z,101362.00
2023-04-16T13:12:51.759Z,101355.80
2023-04-16T13:15:19.861Z,101365.40
2023-04-16T13:17:48.470Z,101361.80
2023-04-16T13:20:16.602Z,101368.20
2023-04-16T13:22:44.419Z,101372.40
2023-04-16T13:25:12.304Z,101368.40
2023-04-16T13:27:40.135Z,101376.00
2023-04-16T13:30:08.551Z,101372.20
2023-04-16T13:32:36.787Z,101372.80
2023-04-16T13:35:05.137Z,101362.80
2023-04-16T13:37:32.915Z,101371.40
2023-04-16T13:40:00.823Z,101366.40
2023-04-16T13:42:28.641Z,101372.20
2023-04-16T13:44:58.273Z,101375.60
2023-04-16T13:47:26.348Z,101373.40
2023-04-16T13:49:54.253Z,101376.00
2023-04-16T13:52:22.050Z,101386.00
2023-04-16T13:54:49.802Z,101384.20
2023-04-16T13:57:18.256Z,101382.20
2023-04-16T13:59:49.698Z,101389.80
2023-04-16T14:02:18.082Z,101379.80
2023-04-16T14:04:46.281Z,101384.80
2023-04-16T14:07:15.785Z,101378.80
2023-04-16T14:09:44.201Z,101376.20
2023-04-16T14:12:12.148Z,101379.20
2023-04-16T14:14:39.969Z,101375.60
2023-04-16T14:17:07.885Z,101378.60
2023-04-16T14:19:35.748Z,101382.60
2023-04-16T14:22:03.690Z,101383.40
2023-04-16T14:24:31.421Z,101385.60
2023-04-16T14:26:59.291Z,101382.60
2023-04-16T14:29:27.216Z,101387.40
2023-04-16T14:31:55.090Z,101387.20
2023-04-16T14:34:22.899Z,101387.00
2023-04-16T14:36:52.116Z,101392.00
2023-04-16T14:39:20.015Z,101394.00
2023-04-16T14:41:47.813Z,101395.60
2023-04-16T14:44:15.706Z,101389.20
2023-04-16T14:46:44.086Z,101390.80
2023-04-16T14:49:12.528Z,101395.60
2023-04-16T14:51:41.748Z,101395.20
2023-04-16T14:54:10.030Z,101393.80
2023-04-16T14:56:38.581Z,101402.60
2023-04-16T14:59:11.422Z,101400.00
2023-04-16T15:01:40.546Z,101400.40
2023-04-16T15:04:09.227Z,101404.00
2023-04-16T15:06:38.422Z,101402.20
2023-04-16T15:09:07.770Z,101403.80
2023-04-16T15:11:35.681Z,101408.40
2023-04-16T15:14:03.620Z,101406.40
2023-04-16T15:16:31.737Z,101410.60
2023-04-16T15:18:59.709Z,101404.20
2023-04-16T15:21:28.078Z,101413.80
2023-04-16T15:23:55.889Z,101413.20
2023-04-16T15:26:24.189Z,101415.40
2023-04-16T15:28:52.014Z,101420.00
2023-04-16T15:31:21.162Z,101417.80
2023-04-16T15:33:49.802Z,101421.00
2023-04-16T15:36:17.654Z,101424.20
2023-04-16T15:38:47.379Z,101425.80
2023-04-16T15:41:18.282Z,101426.40
2023-04-16T15:43:46.378Z,101427.40
2023-04-16T15:46:15.372Z,101433.20
2023-04-16T15:48:43.407Z,101437.20
2023-04-16T15:51:14.707Z,101440.80
2023-04-16T15:53:44.805Z,101438.40
2023-04-16T15:56:12.750Z,101440.40
2023-04-16T15:58:53.816Z,101438.60
2023-04-16T16:01:24.274Z,101437.80
2023-04-16T16:03:52.513Z,101441.40
2023-04-16T16:06:21.131Z,101447.40
2023-04-16T16:08:50.334Z,101446.20
2023-04-16T16:11:18.323Z,101454.60
2023-04-16T16:13:46.489Z,101458.60
2023-04-16T16:16:15.183Z,101455.40
2023-04-16T16:18:43.346Z,101457.80
2023-04-16T16:21:11.735Z,101454.00
2023-04-16T16:23:40.251Z,101454.40
2023-04-16T16:26:17.494Z,101460.00
2023-04-16T16:28:46.060Z,101458.80
2023-04-16T16:31:14.392Z,101468.00
2023-04-16T16:33:42.234Z,101463.60
2023-04-16T16:36:12.397Z,101470.20
2023-04-16T16:38:41.360Z,101469.00
2023-04-16T16:41:09.295Z,101467.20
2023-04-16T16:43:39.504Z,101468.60
2023-04-16T16:46:07.694Z,101470.00
2023-04-16T16:48:39.202Z,101471.20
2023-04-16T16:51:15.894Z,101471.20
2023-04-16T16:53:47.213Z,101469.80
2023-04-16T16:56:15.050Z,101477.00
2023-04-16T16:58:43.192Z,101479.80
2023-04-16T17:01:11.616Z,101480.80
2023-04-16T17:03:42.382Z,101479.60
2023-04-16T17:06:11.254Z,101484.00
2023-04-16T17:08:39.318Z,101483.00
2023-04-16T17:11:09.524Z,101486.40
2023-04-16T17:13:37.352Z,101487.20
2023-04-16T17:16:05.509Z,101480.20
2023-04-16T17:18:34.905Z,101483.80
2023-04-16T17:21:05.470Z,101486.20
2023-04-16T17:23:33.339Z,101495.40
2023-04-16T17:26:01.255Z,101492.20
2023-04-16T17:28:29.447Z,101492.60
2023-04-16T17:31:01.766Z,101493.00
2023-04-16T17:33:29.639Z,101492.00
2023-04-16T17:35:57.455Z,101495.00
2023-04-16T17:38:35.342Z,101496.60
2023-04-16T17:41:03.313Z,101497.60
2023-04-16T17:43:31.391Z,101499.40
2023-04-16T17:45:59.389Z,101506.60
2023-04-16T17:48:27.153Z,101510.60
2023-04-16T17:50:55.024Z,101509.80
2023-04-16T17:53:23.038Z,101511.40
2023-04-16T17:55:56.939Z,101514.80
2023-04-16T17:58:26.554Z,101514.60
2023-04-16T18:00:54.317Z,101511.80
2023-04-16T18:03:22.392Z,101516.40
2023-04-16T18:05:50.666Z,101516.00
2023-04-16T18:08:18.751Z,101513.40
2023-04-16T18:10:46.736Z,101520.40
2023-04-16T18:13:16.884Z,101523.40
2023-04-16T18:15:44.816Z,101517.00
2023-04-16T18:18:13.195Z,101524.60
2023-04-16T18:20:41.409Z,101525.40
2023-04-16T18:23:12.556Z,101527.80
2023-04-16T18:25:40.894Z,101530.80
2023-04-16T18:28:09.537Z,101532.00
2023-04-16T18:30:40.417Z,101534.40
2023-04-16T18:33:34.377Z,101534.00
2023-04-16T18:35:56.604Z,101534.40
2023-04-16T18:38:24.675Z,101535.80
2023-04-16T18:40:52.514Z,101543.60
2023-04-16T18:43:20.530Z,101541.40
2023-04-16T18:45:48.462Z,101543.40
2023-04-16T18:48:16.407Z,101540.00
2023-04-16T18:50:46.755Z,101540.80
2023-04-16T18:53:14.615Z,101542.60
2023-04-16T18:55:42.576Z,101543.60
2023-04-16T18:58:10.997Z,101543.40
2023-04-16T19:00:38.875Z,101543.00
2023-04-16T19:03:07.618Z,101547.60
2023-04-16T19:05:35.782Z,101553.20
2023-04-16T19:08:03.649Z,101555.80
2023-04-16T19:10:34.468Z,101558.80
2023-04-16T19:13:02.291Z,101552.80
2023-04-16T19:15:32.069Z,101558.60
2023-04-16T19:18:01.257Z,101556.60
2023-04-16T19:20:29.082Z,101561.80
2023-04-16T19:22:56.996Z,101560.20
2023-04-16T19:25:24.819Z,101564.20
2023-04-16T19:27:52.719Z,101562.60
2023-04-16T19:30:20.659Z,101562.80
2023-04-16T19:32:48.530Z,101556.60
2023-04-16T19:35:16.347Z,101561.00
2023-04-16T19:37:44.506Z,101558.40
2023-04-16T19:40:12.504Z,101563.60
2023-04-16T19:42:40.790Z,101565.80
2023-04-16T19:45:08.929Z,101568.80
2023-04-16T19:47:36.770Z,101568.40
2023-04-16T19:50:05.001Z,101568.80
2023-04-16T19:52:37.484Z,101567.60
2023-04-16T19:55:07.159Z,101571.80
2023-04-16T19:57:35.022Z,101571.00
2023-04-16T20:00:02.982Z,101575.40
2023-04-16T20:02:31.313Z,101574.20
2023-04-16T20:05:02.076Z,101576.60
2023-04-16T20:07:30.065Z,101572.20
2023-04-16T20:09:58.076Z,101571.20
2023-04-16T20:12:26.519Z,101573.20
2023-04-16T20:14:54.493Z,101573.40
2023-04-16T20:17:22.243Z,101566.40
2023-04-16T20:19:51.554Z,101563.60
2023-04-16T20:22:19.617Z,101567.20
2023-04-16T20:24:49.754Z,101562.80
2023-04-16T20:27:19.599Z,101560.40
2023-04-16T20:29:47.594Z,101563.60
2023-04-16T20:32:15.554Z,101564.00
2023-04-16T20:34:43.419Z,101566.60
2023-04-16T20:37:11.422Z,101565.60
2023-04-16T20:39:42.206Z,101567.80
2023-04-16T20:42:13.405Z,101563.60
2023-04-16T20:44:41.525Z,101568.60
2023-04-16T20:47:15.061Z,101568.40
2023-04-16T20:49:47.095Z,101568.60
2023-04-16T20:52:17.635Z,101573.20
2023-04-16T20:54:45.445Z,101570.40
2023-04-16T20:57:13.474Z,101572.60
2023-04-16T20:59:41.284Z,101575.80
2023-04-16T21:02:09.116Z,101578.20
2023-04-16T21:04:37.639Z,101579.20
2023-04-16T21:07:05.459Z,101585.60
2023-04-16T21:09:33.353Z,101586.60
2023-04-16T21:12:01.910Z,101580.80
2023-04-16T21:14:29.749Z,101580.00
2023-04-16T21:16:57.614Z,101579.60
2023-04-16T21:19:27.012Z,101578.80
2023-04-16T21:21:54.736Z,101586.80
2023-04-16T21:24:22.709Z,101581.20
2023-04-16T21:26:50.447Z,101581.40
2023-04-16T21:29:18.244Z,101578.20
2023-04-16T21:31:46.136Z,101577.40
2023-04-16T21:34:14.042Z,101577.80
2023-04-16T21:36:41.748Z,101577.20
2023-04-16T21:39:09.653Z,101572.20
2023-04-16T21:41:37.763Z,101577.20
2023-04-16T21:44:05.670Z,101573.60
2023-04-16T21:46:33.444Z,101572.40
2023-04-16T21:49:01.390Z,101563.80
2023-04-16T21:51:29.353Z,101566.60
2023-04-16T21:53:57.876Z,101564.60
2023-04-16T21:56:26.165Z,101569.20
2023-04-16T21:58:53.939Z,101564.20
2023-04-16T22:01:21.869Z,101565.20
2023-04-16T22:03:52.240Z,101562.00
2023-04-16T22:06:20.679Z,101566.00
2023-04-16T22:08:50.138Z,101573.00
2023-04-16T22:11:18.298Z,101576.60
2023-04-16T22:13:47.858Z,101577.60
2023-04-16T22:16:15.857Z,101572.60
2023-04-16T22:18:43.923Z,101566.20
2023-04-16T22:21:11.812Z,101570.00
2023-04-16T22:23:39.594Z,101576.20
2023-04-16T22:26:09.186Z,101582.80
2023-04-16T22:28:36.941Z,101581.00
2023-04-16T22:31:05.225Z,101582.60
2023-04-16T22:33:32.939Z,101578.00
2023-04-16T22:36:01.071Z,101587.20
2023-04-16T22:38:28.831Z,101584.20
2023-04-16T22:40:56.617Z,101583.20
2023-04-16T22:43:24.372Z,101584.60
2023-04-16T22:46:06.671Z,101583.00
2023-04-16T22:48:38.927Z,101588.80
2023-04-16T22:51:09.285Z,101586.80
2023-04-16T22:53:37.174Z,101588.20
2023-04-16T22:56:05.473Z,101590.60
2023-04-16T22:58:33.256Z,101593.40
2023-04-16T23:01:01.866Z,101593.20
2023-04-16T23:03:29.881Z,101593.20
2023-04-16T23:05:57.719Z,101591.40
2023-04-16T23:08:25.756Z,101598.80
2023-04-16T23:10:53.657Z,101598.00
2023-04-16T23:13:21.526Z,101594.40
2023-04-16T23:15:49.318Z,101596.80
2023-04-16T23:18:17.118Z,101596.80
2023-04-16T23:20:44.856Z,101595.20
2023-04-16T23:23:13.025Z,101593.20
2023-04-16T23:25:42.585Z,101598.80
2023-04-16T23:28:10.589Z,101598.60
2023-04-16T23:30:38.581Z,101593.20
2023-04-16T23:33:06.852Z,101591.80
2023-04-16T23:35:34.749Z,101592.20
2023-04-16T23:38:03.013Z,101587.40
2023-04-16T23:40:31.017Z,101597.60
2023-04-16T23:42:58.989Z,101596.20
2023-04-16T23:45:26.778Z,101595.80
2023-04-16T23:47:54.579Z,101596.40
2023-04-16T23:50:22.467Z,101602.00
2023-04-16T23:52:50.320Z,101602.20
2023-04-16T23:55:18.093Z,101603.00
2023-04-16T23:57:45.870Z,101605.20
